<?xml version="1.0" encoding="UTF-8" standalone="no" ?>
<gpx xmlns="http://www.topografix.com/GPX/1/1" xmlns:xsi="http://www.w3.org/2001/XMLSchema-instance" xsi:schemaLocation="http://www.topografix.com/GPX/1/1 http://www.topografix.com/GPX/1/1/gpx.xsd" version="1.1" creator="VisuGPX - https://www.visugpx.com">
  <metadata>
    <name>13605450-séjour roc de la calme</name>
  </metadata>
  <trk>
    <name><![CDATA[13605450-séjour roc de la calme]]></name>
    <trkseg>
      <trkpt lat="42.56031" lon="1.99664">
        <ele>2040</ele>
        <time>2021-08-24T12:01:09Z</time>
      </trkpt>
      <trkpt lat="42.56032" lon="1.9968">
        <ele>2038</ele>
        <time>2021-08-24T12:01:25Z</time>
      </trkpt>
      <trkpt lat="42.56035" lon="1.99704">
        <ele>2035</ele>
        <time>2021-08-24T12:01:49Z</time>
      </trkpt>
      <trkpt lat="42.56044" lon="1.99723">
        <ele>2033</ele>
        <time>2021-08-24T12:02:11Z</time>
      </trkpt>
      <trkpt lat="42.56045" lon="1.99734">
        <ele>2031</ele>
        <time>2021-08-24T12:02:22Z</time>
      </trkpt>
      <trkpt lat="42.56039" lon="1.99742">
        <ele>2030</ele>
        <time>2021-08-24T12:02:33Z</time>
      </trkpt>
      <trkpt lat="42.56036" lon="1.99752">
        <ele>2029</ele>
        <time>2021-08-24T12:02:44Z</time>
      </trkpt>
      <trkpt lat="42.56035" lon="1.99758">
        <ele>2028</ele>
        <time>2021-08-24T12:02:50Z</time>
      </trkpt>
      <trkpt lat="42.56039" lon="1.99773">
        <ele>2026</ele>
        <time>2021-08-24T12:03:05Z</time>
      </trkpt>
      <trkpt lat="42.5604" lon="1.99781">
        <ele>2024</ele>
        <time>2021-08-24T12:03:13Z</time>
      </trkpt>
      <trkpt lat="42.56037" lon="1.99791">
        <ele>2023</ele>
        <time>2021-08-24T12:03:24Z</time>
      </trkpt>
      <trkpt lat="42.56033" lon="1.998">
        <ele>2022</ele>
        <time>2021-08-24T12:03:34Z</time>
      </trkpt>
      <trkpt lat="42.56026" lon="1.99809">
        <ele>2021</ele>
        <time>2021-08-24T12:03:47Z</time>
      </trkpt>
      <trkpt lat="42.56017" lon="1.99825">
        <ele>2020</ele>
        <time>2021-08-24T12:04:07Z</time>
      </trkpt>
      <trkpt lat="42.5601" lon="1.99841">
        <ele>2019</ele>
        <time>2021-08-24T12:04:25Z</time>
      </trkpt>
      <trkpt lat="42.56002" lon="1.99848">
        <ele>2020</ele>
        <time>2021-08-24T12:04:38Z</time>
      </trkpt>
      <trkpt lat="42.55978" lon="1.99861">
        <ele>2019</ele>
        <time>2021-08-24T12:05:12Z</time>
      </trkpt>
      <trkpt lat="42.55969" lon="1.99868">
        <ele>2018</ele>
        <time>2021-08-24T12:05:26Z</time>
      </trkpt>
      <trkpt lat="42.5597" lon="1.99871">
        <ele>2018</ele>
        <time>2021-08-24T12:05:30Z</time>
      </trkpt>
      <trkpt lat="42.55972" lon="1.99889">
        <ele>2017</ele>
        <time>2021-08-24T12:05:47Z</time>
      </trkpt>
      <trkpt lat="42.55974" lon="1.99904">
        <ele>2017</ele>
        <time>2021-08-24T12:06:02Z</time>
      </trkpt>
      <trkpt lat="42.56045" lon="2.00318">
        <ele>2016</ele>
        <time>2021-08-24T12:13:00Z</time>
      </trkpt>
      <trkpt lat="42.56044" lon="2.00328">
        <ele>2017</ele>
        <time>2021-08-24T12:13:10Z</time>
      </trkpt>
      <trkpt lat="42.5604" lon="2.00332">
        <ele>2017</ele>
        <time>2021-08-24T12:13:17Z</time>
      </trkpt>
      <trkpt lat="42.56019" lon="2.00336">
        <ele>2016</ele>
        <time>2021-08-24T12:13:45Z</time>
      </trkpt>
      <trkpt lat="42.56014" lon="2.0034">
        <ele>2015</ele>
        <time>2021-08-24T12:13:53Z</time>
      </trkpt>
      <trkpt lat="42.5601" lon="2.00354">
        <ele>2016</ele>
        <time>2021-08-24T12:14:08Z</time>
      </trkpt>
      <trkpt lat="42.56002" lon="2.00374">
        <ele>2016</ele>
        <time>2021-08-24T12:14:30Z</time>
      </trkpt>
      <trkpt lat="42.55984" lon="2.00376">
        <ele>2015</ele>
        <time>2021-08-24T12:14:54Z</time>
      </trkpt>
      <trkpt lat="42.55971" lon="2.00375">
        <ele>2014</ele>
        <time>2021-08-24T12:15:11Z</time>
      </trkpt>
      <trkpt lat="42.55961" lon="2.00366">
        <ele>2014</ele>
        <time>2021-08-24T12:15:27Z</time>
      </trkpt>
      <trkpt lat="42.5595" lon="2.0035">
        <ele>2013</ele>
        <time>2021-08-24T12:15:49Z</time>
      </trkpt>
      <trkpt lat="42.55941" lon="2.00339">
        <ele>2012</ele>
        <time>2021-08-24T12:16:05Z</time>
      </trkpt>
      <trkpt lat="42.55928" lon="2.00321">
        <ele>2011</ele>
        <time>2021-08-24T12:16:30Z</time>
      </trkpt>
      <trkpt lat="42.55925" lon="2.00308">
        <ele>2010</ele>
        <time>2021-08-24T12:16:43Z</time>
      </trkpt>
      <trkpt lat="42.55914" lon="2.00308">
        <ele>2010</ele>
        <time>2021-08-24T12:16:58Z</time>
      </trkpt>
      <trkpt lat="42.5589" lon="2.00312">
        <ele>2007</ele>
        <time>2021-08-24T12:17:30Z</time>
      </trkpt>
      <trkpt lat="42.55885" lon="2.00316">
        <ele>2006</ele>
        <time>2021-08-24T12:17:38Z</time>
      </trkpt>
      <trkpt lat="42.55881" lon="2.00323">
        <ele>2006</ele>
        <time>2021-08-24T12:17:47Z</time>
      </trkpt>
      <trkpt lat="42.55879" lon="2.0033">
        <ele>2005</ele>
        <time>2021-08-24T12:17:54Z</time>
      </trkpt>
      <trkpt lat="42.55878" lon="2.00363">
        <ele>2006</ele>
        <time>2021-08-24T12:18:26Z</time>
      </trkpt>
      <trkpt lat="42.55875" lon="2.00371">
        <ele>2006</ele>
        <time>2021-08-24T12:18:35Z</time>
      </trkpt>
      <trkpt lat="42.55862" lon="2.00385">
        <ele>2005</ele>
        <time>2021-08-24T12:18:57Z</time>
      </trkpt>
      <trkpt lat="42.55846" lon="2.00426">
        <ele>2004</ele>
        <time>2021-08-24T12:19:43Z</time>
      </trkpt>
      <trkpt lat="42.55838" lon="2.00434">
        <ele>2003</ele>
        <time>2021-08-24T12:19:56Z</time>
      </trkpt>
      <trkpt lat="42.55821" lon="2.0045">
        <ele>2001</ele>
        <time>2021-08-24T12:20:24Z</time>
      </trkpt>
      <trkpt lat="42.558" lon="2.00476">
        <ele>2000</ele>
        <time>2021-08-24T12:21:02Z</time>
      </trkpt>
      <trkpt lat="42.55784" lon="2.00491">
        <ele>1998</ele>
        <time>2021-08-24T12:21:28Z</time>
      </trkpt>
      <trkpt lat="42.5578" lon="2.00496">
        <ele>1998</ele>
        <time>2021-08-24T12:21:35Z</time>
      </trkpt>
      <trkpt lat="42.55771" lon="2.00534">
        <ele>1998</ele>
        <time>2021-08-24T12:22:14Z</time>
      </trkpt>
      <trkpt lat="42.55767" lon="2.00543">
        <ele>1998</ele>
        <time>2021-08-24T12:22:25Z</time>
      </trkpt>
      <trkpt lat="42.55752" lon="2.00559">
        <ele>1996</ele>
        <time>2021-08-24T12:22:50Z</time>
      </trkpt>
      <trkpt lat="42.55744" lon="2.0057">
        <ele>1995</ele>
        <time>2021-08-24T12:23:05Z</time>
      </trkpt>
      <trkpt lat="42.55737" lon="2.00587">
        <ele>1995</ele>
        <time>2021-08-24T12:23:24Z</time>
      </trkpt>
      <trkpt lat="42.55706" lon="2.00674">
        <ele>1996</ele>
        <time>2021-08-24T12:24:59Z</time>
      </trkpt>
      <trkpt lat="42.55705" lon="2.00687">
        <ele>1997</ele>
        <time>2021-08-24T12:25:12Z</time>
      </trkpt>
      <trkpt lat="42.55712" lon="2.00729">
        <ele>1998</ele>
        <time>2021-08-24T12:25:55Z</time>
      </trkpt>
      <trkpt lat="42.55712" lon="2.00742">
        <ele>1998</ele>
        <time>2021-08-24T12:26:07Z</time>
      </trkpt>
      <trkpt lat="42.5571" lon="2.00751">
        <ele>1998</ele>
        <time>2021-08-24T12:26:17Z</time>
      </trkpt>
      <trkpt lat="42.55697" lon="2.00779">
        <ele>1997</ele>
        <time>2021-08-24T12:26:49Z</time>
      </trkpt>
      <trkpt lat="42.55695" lon="2.00784">
        <ele>1997</ele>
        <time>2021-08-24T12:26:55Z</time>
      </trkpt>
      <trkpt lat="42.55691" lon="2.00781">
        <ele>1997</ele>
        <time>2021-08-24T12:27:01Z</time>
      </trkpt>
      <trkpt lat="42.55683" lon="2.00773">
        <ele>1996</ele>
        <time>2021-08-24T12:27:14Z</time>
      </trkpt>
      <trkpt lat="42.55682" lon="2.00767">
        <ele>1996</ele>
        <time>2021-08-24T12:27:20Z</time>
      </trkpt>
      <trkpt lat="42.55682" lon="2.00729">
        <ele>1995</ele>
        <time>2021-08-24T12:27:58Z</time>
      </trkpt>
      <trkpt lat="42.55679" lon="2.00722">
        <ele>1995</ele>
        <time>2021-08-24T12:28:05Z</time>
      </trkpt>
      <trkpt lat="42.55675" lon="2.00718">
        <ele>1995</ele>
        <time>2021-08-24T12:28:12Z</time>
      </trkpt>
      <trkpt lat="42.55665" lon="2.00713">
        <ele>1994</ele>
        <time>2021-08-24T12:28:26Z</time>
      </trkpt>
      <trkpt lat="42.55647" lon="2.0071">
        <ele>1996</ele>
        <time>2021-08-24T12:28:51Z</time>
      </trkpt>
      <trkpt lat="42.55639" lon="2.00713">
        <ele>1998</ele>
        <time>2021-08-24T12:29:02Z</time>
      </trkpt>
      <trkpt lat="42.55626" lon="2.00727">
        <ele>2000</ele>
        <time>2021-08-24T12:29:24Z</time>
      </trkpt>
      <trkpt lat="42.55624" lon="2.00734">
        <ele>2001</ele>
        <time>2021-08-24T12:29:31Z</time>
      </trkpt>
      <trkpt lat="42.55626" lon="2.0076">
        <ele>2002</ele>
        <time>2021-08-24T12:29:57Z</time>
      </trkpt>
      <trkpt lat="42.55624" lon="2.00779">
        <ele>2003</ele>
        <time>2021-08-24T12:30:16Z</time>
      </trkpt>
      <trkpt lat="42.5562" lon="2.00786">
        <ele>2003</ele>
        <time>2021-08-24T12:30:24Z</time>
      </trkpt>
      <trkpt lat="42.55593" lon="2.00788">
        <ele>2008</ele>
        <time>2021-08-24T12:31:00Z</time>
      </trkpt>
      <trkpt lat="42.55581" lon="2.00794">
        <ele>2010</ele>
        <time>2021-08-24T12:31:18Z</time>
      </trkpt>
      <trkpt lat="42.55572" lon="2.00809">
        <ele>2011</ele>
        <time>2021-08-24T12:31:37Z</time>
      </trkpt>
      <trkpt lat="42.55567" lon="2.00834">
        <ele>2013</ele>
        <time>2021-08-24T12:32:02Z</time>
      </trkpt>
      <trkpt lat="42.5555" lon="2.00881">
        <ele>2012</ele>
        <time>2021-08-24T12:32:53Z</time>
      </trkpt>
      <trkpt lat="42.55527" lon="2.00924">
        <ele>2012</ele>
        <time>2021-08-24T12:33:46Z</time>
      </trkpt>
      <trkpt lat="42.55523" lon="2.00929">
        <ele>2011</ele>
        <time>2021-08-24T12:33:53Z</time>
      </trkpt>
      <trkpt lat="42.55506" lon="2.00934">
        <ele>2012</ele>
        <time>2021-08-24T12:34:16Z</time>
      </trkpt>
      <trkpt lat="42.55487" lon="2.00947">
        <ele>2011</ele>
        <time>2021-08-24T12:34:45Z</time>
      </trkpt>
      <trkpt lat="42.55483" lon="2.00953">
        <ele>2011</ele>
        <time>2021-08-24T12:34:53Z</time>
      </trkpt>
      <trkpt lat="42.55475" lon="2.00954">
        <ele>2011</ele>
        <time>2021-08-24T12:35:03Z</time>
      </trkpt>
      <trkpt lat="42.55449" lon="2.00946">
        <ele>2011</ele>
        <time>2021-08-24T12:35:39Z</time>
      </trkpt>
      <trkpt lat="42.55428" lon="2.00961">
        <ele>2012</ele>
        <time>2021-08-24T12:36:11Z</time>
      </trkpt>
      <trkpt lat="42.55423" lon="2.00978">
        <ele>2013</ele>
        <time>2021-08-24T12:36:29Z</time>
      </trkpt>
      <trkpt lat="42.55417" lon="2.01005">
        <ele>2016</ele>
        <time>2021-08-24T12:36:56Z</time>
      </trkpt>
      <trkpt lat="42.55408" lon="2.01019">
        <ele>2019</ele>
        <time>2021-08-24T12:37:14Z</time>
      </trkpt>
      <trkpt lat="42.55391" lon="2.01028">
        <ele>2021</ele>
        <time>2021-08-24T12:37:39Z</time>
      </trkpt>
      <trkpt lat="42.55382" lon="2.01036">
        <ele>2023</ele>
        <time>2021-08-24T12:37:53Z</time>
      </trkpt>
      <trkpt lat="42.55378" lon="2.01046">
        <ele>2025</ele>
        <time>2021-08-24T12:38:04Z</time>
      </trkpt>
      <trkpt lat="42.55373" lon="2.01048">
        <ele>2025</ele>
        <time>2021-08-24T12:38:11Z</time>
      </trkpt>
      <trkpt lat="42.55356" lon="2.01049">
        <ele>2027</ele>
        <time>2021-08-24T12:38:34Z</time>
      </trkpt>
      <trkpt lat="42.55345" lon="2.01068">
        <ele>2031</ele>
        <time>2021-08-24T12:38:58Z</time>
      </trkpt>
      <trkpt lat="42.55331" lon="2.01082">
        <ele>2034</ele>
        <time>2021-08-24T12:39:21Z</time>
      </trkpt>
      <trkpt lat="42.55318" lon="2.01114">
        <ele>2037</ele>
        <time>2021-08-24T12:39:57Z</time>
      </trkpt>
      <trkpt lat="42.55309" lon="2.01118">
        <ele>2038</ele>
        <time>2021-08-24T12:40:10Z</time>
      </trkpt>
      <trkpt lat="42.55306" lon="2.01131">
        <ele>2039</ele>
        <time>2021-08-24T12:40:23Z</time>
      </trkpt>
      <trkpt lat="42.55306" lon="2.01146">
        <ele>2040</ele>
        <time>2021-08-24T12:40:38Z</time>
      </trkpt>
      <trkpt lat="42.55302" lon="2.01172">
        <ele>2042</ele>
        <time>2021-08-24T12:41:04Z</time>
      </trkpt>
      <trkpt lat="42.55297" lon="2.01234">
        <ele>2045</ele>
        <time>2021-08-24T12:42:05Z</time>
      </trkpt>
      <trkpt lat="42.55298" lon="2.01252">
        <ele>2046</ele>
        <time>2021-08-24T12:42:23Z</time>
      </trkpt>
      <trkpt lat="42.55297" lon="2.01269">
        <ele>2046</ele>
        <time>2021-08-24T12:42:40Z</time>
      </trkpt>
      <trkpt lat="42.55293" lon="2.01282">
        <ele>2046</ele>
        <time>2021-08-24T12:42:53Z</time>
      </trkpt>
      <trkpt lat="42.55288" lon="2.01351">
        <ele>2045</ele>
        <time>2021-08-24T12:44:02Z</time>
      </trkpt>
      <trkpt lat="42.55251" lon="2.01439">
        <ele>2030</ele>
        <time>2021-08-24T12:45:41Z</time>
      </trkpt>
      <trkpt lat="42.55221" lon="2.01456">
        <ele>2028</ele>
        <time>2021-08-24T12:46:25Z</time>
      </trkpt>
      <trkpt lat="42.55203" lon="2.01469">
        <ele>2026</ele>
        <time>2021-08-24T12:46:52Z</time>
      </trkpt>
      <trkpt lat="42.55199" lon="2.01479">
        <ele>2024</ele>
        <time>2021-08-24T12:47:03Z</time>
      </trkpt>
      <trkpt lat="42.55176" lon="2.01498">
        <ele>2020</ele>
        <time>2021-08-24T12:47:39Z</time>
      </trkpt>
      <trkpt lat="42.55166" lon="2.01505">
        <ele>2019</ele>
        <time>2021-08-24T12:47:54Z</time>
      </trkpt>
      <trkpt lat="42.55156" lon="2.0153">
        <ele>2022</ele>
        <time>2021-08-24T12:48:22Z</time>
      </trkpt>
      <trkpt lat="42.55135" lon="2.01625">
        <ele>2025</ele>
        <time>2021-08-24T12:49:59Z</time>
      </trkpt>
      <trkpt lat="42.55126" lon="2.01703">
        <ele>2022</ele>
        <time>2021-08-24T12:51:17Z</time>
      </trkpt>
      <trkpt lat="42.55121" lon="2.01769">
        <ele>2018</ele>
        <time>2021-08-24T12:52:22Z</time>
      </trkpt>
      <trkpt lat="42.55091" lon="2.01826">
        <ele>2012</ele>
        <time>2021-08-24T12:53:31Z</time>
      </trkpt>
      <trkpt lat="42.55072" lon="2.01842">
        <ele>2007</ele>
        <time>2021-08-24T12:54:01Z</time>
      </trkpt>
      <trkpt lat="42.55071" lon="2.01847">
        <ele>2006</ele>
        <time>2021-08-24T12:54:06Z</time>
      </trkpt>
      <trkpt lat="42.55069" lon="2.01857">
        <ele>2005</ele>
        <time>2021-08-24T12:54:16Z</time>
      </trkpt>
      <trkpt lat="42.55049" lon="2.01867">
        <ele>2000</ele>
        <time>2021-08-24T12:54:45Z</time>
      </trkpt>
      <trkpt lat="42.55025" lon="2.01849">
        <ele>1997</ele>
        <time>2021-08-24T12:55:21Z</time>
      </trkpt>
      <trkpt lat="42.54983" lon="2.01797">
        <ele>1999</ele>
        <time>2021-08-24T12:56:37Z</time>
      </trkpt>
      <trkpt lat="42.54962" lon="2.01777">
        <ele>1997</ele>
        <time>2021-08-24T12:57:11Z</time>
      </trkpt>
      <trkpt lat="42.54953" lon="2.01751">
        <ele>2001</ele>
        <time>2021-08-24T12:57:40Z</time>
      </trkpt>
      <trkpt lat="42.54911" lon="2.01765">
        <ele>1984</ele>
        <time>2021-08-24T12:58:37Z</time>
      </trkpt>
      <trkpt lat="42.54913" lon="2.01798">
        <ele>1976</ele>
        <time>2021-08-24T12:59:10Z</time>
      </trkpt>
      <trkpt lat="42.54904" lon="2.01824">
        <ele>1968</ele>
        <time>2021-08-24T12:59:38Z</time>
      </trkpt>
      <trkpt lat="42.5491" lon="2.01854">
        <ele>1963</ele>
        <time>2021-08-24T13:00:09Z</time>
      </trkpt>
      <trkpt lat="42.54868" lon="2.01881">
        <ele>1953</ele>
        <time>2021-08-24T13:01:11Z</time>
      </trkpt>
      <trkpt lat="42.54856" lon="2.0191">
        <ele>1947</ele>
        <time>2021-08-24T13:01:43Z</time>
      </trkpt>
      <trkpt lat="42.54839" lon="2.0192">
        <ele>1945</ele>
        <time>2021-08-24T13:02:08Z</time>
      </trkpt>
      <trkpt lat="42.5482" lon="2.01917">
        <ele>1944</ele>
        <time>2021-08-24T13:02:34Z</time>
      </trkpt>
      <trkpt lat="42.54812" lon="2.01905">
        <ele>1946</ele>
        <time>2021-08-24T13:02:50Z</time>
      </trkpt>
      <trkpt lat="42.54791" lon="2.01898">
        <ele>1947</ele>
        <time>2021-08-24T13:03:18Z</time>
      </trkpt>
      <trkpt lat="42.5478" lon="2.01901">
        <ele>1947</ele>
        <time>2021-08-24T13:03:33Z</time>
      </trkpt>
      <trkpt lat="42.54779" lon="2.01902">
        <ele>1947</ele>
        <time>2021-08-24T13:03:35Z</time>
      </trkpt>
      <trkpt lat="42.54761" lon="2.01912">
        <ele>1946</ele>
        <time>2021-08-24T13:04:01Z</time>
      </trkpt>
      <trkpt lat="42.54753" lon="2.01937">
        <ele>1946</ele>
        <time>2021-08-24T13:04:28Z</time>
      </trkpt>
      <trkpt lat="42.54714" lon="2.01951">
        <ele>1949</ele>
        <time>2021-08-24T13:05:22Z</time>
      </trkpt>
      <trkpt lat="42.54713" lon="2.01967">
        <ele>1949</ele>
        <time>2021-08-24T13:05:37Z</time>
      </trkpt>
      <trkpt lat="42.54722" lon="2.01988">
        <ele>1948</ele>
        <time>2021-08-24T13:06:01Z</time>
      </trkpt>
      <trkpt lat="42.54689" lon="2.02027">
        <ele>1949</ele>
        <time>2021-08-24T13:07:00Z</time>
      </trkpt>
      <trkpt lat="42.54676" lon="2.02031">
        <ele>1950</ele>
        <time>2021-08-24T13:07:17Z</time>
      </trkpt>
      <trkpt lat="42.54679" lon="2.02039">
        <ele>1950</ele>
        <time>2021-08-24T13:07:26Z</time>
      </trkpt>
      <trkpt lat="42.54676" lon="2.02031">
        <ele>1950</ele>
        <time>2021-08-24T13:07:35Z</time>
      </trkpt>
      <trkpt lat="42.54658" lon="2.02012">
        <ele>1953</ele>
        <time>2021-08-24T13:08:06Z</time>
      </trkpt>
      <trkpt lat="42.54634" lon="2.02012">
        <ele>1958</ele>
        <time>2021-08-24T13:08:38Z</time>
      </trkpt>
      <trkpt lat="42.54589" lon="2.01986">
        <ele>1967</ele>
        <time>2021-08-24T13:09:43Z</time>
      </trkpt>
      <trkpt lat="42.54583" lon="2.0197">
        <ele>1968</ele>
        <time>2021-08-24T13:10:01Z</time>
      </trkpt>
      <trkpt lat="42.54593" lon="2.01921">
        <ele>1966</ele>
        <time>2021-08-24T13:10:50Z</time>
      </trkpt>
      <trkpt lat="42.5459" lon="2.0183">
        <ele>1972</ele>
        <time>2021-08-24T13:12:20Z</time>
      </trkpt>
      <trkpt lat="42.54575" lon="2.01765">
        <ele>1972</ele>
        <time>2021-08-24T13:13:27Z</time>
      </trkpt>
      <trkpt lat="42.54538" lon="2.01725">
        <ele>1973</ele>
        <time>2021-08-24T13:14:30Z</time>
      </trkpt>
      <trkpt lat="42.54514" lon="2.01688">
        <ele>1974</ele>
        <time>2021-08-24T13:15:19Z</time>
      </trkpt>
      <trkpt lat="42.54513" lon="2.01651">
        <ele>1972</ele>
        <time>2021-08-24T13:15:55Z</time>
      </trkpt>
      <trkpt lat="42.5451" lon="2.01626">
        <ele>1970</ele>
        <time>2021-08-24T13:16:20Z</time>
      </trkpt>
      <trkpt lat="42.54478" lon="2.01532">
        <ele>1970</ele>
        <time>2021-08-24T13:18:02Z</time>
      </trkpt>
      <trkpt lat="42.54478" lon="2.01512">
        <ele>1969</ele>
        <time>2021-08-24T13:18:21Z</time>
      </trkpt>
      <trkpt lat="42.54471" lon="2.01467">
        <ele>1970</ele>
        <time>2021-08-24T13:19:07Z</time>
      </trkpt>
      <trkpt lat="42.54473" lon="2.01397">
        <ele>1968</ele>
        <time>2021-08-24T13:20:15Z</time>
      </trkpt>
      <trkpt lat="42.5446" lon="2.01351">
        <ele>1969</ele>
        <time>2021-08-24T13:21:04Z</time>
      </trkpt>
      <trkpt lat="42.54432" lon="2.01316">
        <ele>1971</ele>
        <time>2021-08-24T13:21:55Z</time>
      </trkpt>
      <trkpt lat="42.54421" lon="2.01296">
        <ele>1971</ele>
        <time>2021-08-24T13:22:19Z</time>
      </trkpt>
      <trkpt lat="42.54418" lon="2.01286">
        <ele>1971</ele>
        <time>2021-08-24T13:22:30Z</time>
      </trkpt>
      <trkpt lat="42.54417" lon="2.01266">
        <ele>1970</ele>
        <time>2021-08-24T13:22:50Z</time>
      </trkpt>
      <trkpt lat="42.54418" lon="2.01253">
        <ele>1969</ele>
        <time>2021-08-24T13:23:02Z</time>
      </trkpt>
      <trkpt lat="42.5442" lon="2.01248">
        <ele>1969</ele>
        <time>2021-08-24T13:23:08Z</time>
      </trkpt>
      <trkpt lat="42.5442" lon="2.01224">
        <ele>1969</ele>
        <time>2021-08-24T13:23:32Z</time>
      </trkpt>
      <trkpt lat="42.54418" lon="2.01218">
        <ele>1969</ele>
        <time>2021-08-24T13:23:38Z</time>
      </trkpt>
      <trkpt lat="42.54392" lon="2.01286">
        <ele>1977</ele>
        <time>2021-08-24T13:24:53Z</time>
      </trkpt>
      <trkpt lat="42.54353" lon="2.01378">
        <ele>1980</ele>
        <time>2021-08-24T13:26:38Z</time>
      </trkpt>
      <trkpt lat="42.54339" lon="2.01409">
        <ele>1978</ele>
        <time>2021-08-24T13:27:14Z</time>
      </trkpt>
      <trkpt lat="42.54318" lon="2.01473">
        <ele>1978</ele>
        <time>2021-08-24T13:28:22Z</time>
      </trkpt>
      <trkpt lat="42.54302" lon="2.01511">
        <ele>1976</ele>
        <time>2021-08-24T13:29:05Z</time>
      </trkpt>
      <trkpt lat="42.54294" lon="2.01549">
        <ele>1969</ele>
        <time>2021-08-24T13:29:44Z</time>
      </trkpt>
      <trkpt lat="42.54289" lon="2.01631">
        <ele>1953</ele>
        <time>2021-08-24T13:31:05Z</time>
      </trkpt>
      <trkpt lat="42.5429" lon="2.01682">
        <ele>1945</ele>
        <time>2021-08-24T13:31:55Z</time>
      </trkpt>
      <trkpt lat="42.543" lon="2.01745">
        <ele>1936</ele>
        <time>2021-08-24T13:32:59Z</time>
      </trkpt>
      <trkpt lat="42.54303" lon="2.0178">
        <ele>1933</ele>
        <time>2021-08-24T13:33:33Z</time>
      </trkpt>
      <trkpt lat="42.54292" lon="2.01849">
        <ele>1928</ele>
        <time>2021-08-24T13:34:43Z</time>
      </trkpt>
      <trkpt lat="42.54267" lon="2.01917">
        <ele>1927</ele>
        <time>2021-08-24T13:35:57Z</time>
      </trkpt>
      <trkpt lat="42.54247" lon="2.01985">
        <ele>1922</ele>
        <time>2021-08-24T13:37:09Z</time>
      </trkpt>
      <trkpt lat="42.54233" lon="2.02119">
        <ele>1913</ele>
        <time>2021-08-24T13:39:23Z</time>
      </trkpt>
      <trkpt lat="42.5423" lon="2.02135">
        <ele>1911</ele>
        <time>2021-08-24T13:39:39Z</time>
      </trkpt>
      <trkpt lat="42.54229" lon="2.0214">
        <ele>1911</ele>
        <time>2021-08-24T13:39:44Z</time>
      </trkpt>
      <trkpt lat="42.54221" lon="2.02148">
        <ele>1910</ele>
        <time>2021-08-24T13:39:57Z</time>
      </trkpt>
      <trkpt lat="42.54204" lon="2.02181">
        <ele>1906</ele>
        <time>2021-08-24T13:40:37Z</time>
      </trkpt>
      <trkpt lat="42.54194" lon="2.02225">
        <ele>1901</ele>
        <time>2021-08-24T13:41:22Z</time>
      </trkpt>
      <trkpt lat="42.54167" lon="2.02266">
        <ele>1895</ele>
        <time>2021-08-24T13:42:16Z</time>
      </trkpt>
      <trkpt lat="42.54153" lon="2.02303">
        <ele>1894</ele>
        <time>2021-08-24T13:42:57Z</time>
      </trkpt>
      <trkpt lat="42.54102" lon="2.02369">
        <ele>1897</ele>
        <time>2021-08-24T13:44:31Z</time>
      </trkpt>
      <trkpt lat="42.5407" lon="2.02399">
        <ele>1903</ele>
        <time>2021-08-24T13:45:23Z</time>
      </trkpt>
      <trkpt lat="42.54025" lon="2.02434">
        <ele>1913</ele>
        <time>2021-08-24T13:46:32Z</time>
      </trkpt>
      <trkpt lat="42.53984" lon="2.02592">
        <ele>1918</ele>
        <time>2021-08-24T13:49:17Z</time>
      </trkpt>
      <trkpt lat="42.53985" lon="2.02666">
        <ele>1911</ele>
        <time>2021-08-24T13:50:30Z</time>
      </trkpt>
      <trkpt lat="42.53976" lon="2.02715">
        <ele>1912</ele>
        <time>2021-08-24T13:51:19Z</time>
      </trkpt>
      <trkpt lat="42.53924" lon="2.02791">
        <ele>1928</ele>
        <time>2021-08-24T13:53:01Z</time>
      </trkpt>
      <trkpt lat="42.53923" lon="2.02825">
        <ele>1928</ele>
        <time>2021-08-24T13:53:35Z</time>
      </trkpt>
      <trkpt lat="42.53912" lon="2.02847">
        <ele>1933</ele>
        <time>2021-08-24T13:54:01Z</time>
      </trkpt>
      <trkpt lat="42.53913" lon="2.02889">
        <ele>1934</ele>
        <time>2021-08-24T13:54:42Z</time>
      </trkpt>
      <trkpt lat="42.53904" lon="2.02918">
        <ele>1940</ele>
        <time>2021-08-24T13:55:13Z</time>
      </trkpt>
      <trkpt lat="42.53893" lon="2.02945">
        <ele>1945</ele>
        <time>2021-08-24T13:55:43Z</time>
      </trkpt>
      <trkpt lat="42.5389" lon="2.02999">
        <ele>1947</ele>
        <time>2021-08-24T13:56:37Z</time>
      </trkpt>
      <trkpt lat="42.53862" lon="2.03097">
        <ele>1959</ele>
        <time>2021-08-24T13:58:20Z</time>
      </trkpt>
      <trkpt lat="42.53851" lon="2.03119">
        <ele>1963</ele>
        <time>2021-08-24T13:58:46Z</time>
      </trkpt>
      <trkpt lat="42.53845" lon="2.03143">
        <ele>1965</ele>
        <time>2021-08-24T13:59:11Z</time>
      </trkpt>
      <trkpt lat="42.53827" lon="2.03176">
        <ele>1970</ele>
        <time>2021-08-24T13:59:51Z</time>
      </trkpt>
      <trkpt lat="42.53827" lon="2.03218">
        <ele>1974</ele>
        <time>2021-08-24T14:00:33Z</time>
      </trkpt>
      <trkpt lat="42.53761" lon="2.03268">
        <ele>1979</ele>
        <time>2021-08-24T14:02:14Z</time>
      </trkpt>
      <trkpt lat="42.53752" lon="2.03278">
        <ele>1979</ele>
        <time>2021-08-24T14:02:29Z</time>
      </trkpt>
      <trkpt lat="42.53565" lon="2.03294">
        <ele>2054</ele>
        <time>2021-08-24T14:06:39Z</time>
      </trkpt>
      <trkpt lat="42.5358" lon="2.03235">
        <ele>2053</ele>
        <time>2021-08-24T14:07:41Z</time>
      </trkpt>
      <trkpt lat="42.53563" lon="2.03178">
        <ele>2069</ele>
        <time>2021-08-24T14:08:41Z</time>
      </trkpt>
      <trkpt lat="42.53578" lon="2.03107">
        <ele>2079</ele>
        <time>2021-08-24T14:09:54Z</time>
      </trkpt>
      <trkpt lat="42.53565" lon="2.02824">
        <ele>2122</ele>
        <time>2021-08-24T14:14:32Z</time>
      </trkpt>
      <trkpt lat="42.53561" lon="2.02739">
        <ele>2126</ele>
        <time>2021-08-24T14:15:56Z</time>
      </trkpt>
      <trkpt lat="42.53521" lon="2.02671">
        <ele>2129</ele>
        <time>2021-08-24T14:17:22Z</time>
      </trkpt>
      <trkpt lat="42.53525" lon="2.02667">
        <ele>2129</ele>
        <time>2021-08-24T14:17:28Z</time>
      </trkpt>
      <trkpt lat="42.53531" lon="2.02657">
        <ele>2130</ele>
        <time>2021-08-24T14:17:41Z</time>
      </trkpt>
      <trkpt lat="42.53538" lon="2.02644">
        <ele>2131</ele>
        <time>2021-08-24T14:17:57Z</time>
      </trkpt>
      <trkpt lat="42.5354" lon="2.02633">
        <ele>2131</ele>
        <time>2021-08-24T14:18:08Z</time>
      </trkpt>
      <trkpt lat="42.5354" lon="2.02596">
        <ele>2133</ele>
        <time>2021-08-24T14:18:44Z</time>
      </trkpt>
      <trkpt lat="42.5353" lon="2.02472">
        <ele>2142</ele>
        <time>2021-08-24T14:20:47Z</time>
      </trkpt>
      <trkpt lat="42.53528" lon="2.02433">
        <ele>2144</ele>
        <time>2021-08-24T14:21:26Z</time>
      </trkpt>
      <trkpt lat="42.53521" lon="2.0236">
        <ele>2150</ele>
        <time>2021-08-24T14:22:38Z</time>
      </trkpt>
      <trkpt lat="42.53515" lon="2.02326">
        <ele>2152</ele>
        <time>2021-08-24T14:23:12Z</time>
      </trkpt>
      <trkpt lat="42.53498" lon="2.02256">
        <ele>2157</ele>
        <time>2021-08-24T14:24:25Z</time>
      </trkpt>
      <trkpt lat="42.53494" lon="2.02232">
        <ele>2160</ele>
        <time>2021-08-24T14:24:49Z</time>
      </trkpt>
      <trkpt lat="42.53492" lon="2.022">
        <ele>2164</ele>
        <time>2021-08-24T14:25:21Z</time>
      </trkpt>
      <trkpt lat="42.53492" lon="2.02143">
        <ele>2170</ele>
        <time>2021-08-24T14:26:17Z</time>
      </trkpt>
      <trkpt lat="42.53491" lon="2.02114">
        <ele>2171</ele>
        <time>2021-08-24T14:26:45Z</time>
      </trkpt>
      <trkpt lat="42.53506" lon="2.02067">
        <ele>2177</ele>
        <time>2021-08-24T14:27:35Z</time>
      </trkpt>
      <trkpt lat="42.53527" lon="2.02008">
        <ele>2182</ele>
        <time>2021-08-24T14:28:40Z</time>
      </trkpt>
      <trkpt lat="42.53544" lon="2.01949">
        <ele>2190</ele>
        <time>2021-08-24T14:29:42Z</time>
      </trkpt>
      <trkpt lat="42.53555" lon="2.01871">
        <ele>2197</ele>
        <time>2021-08-24T14:31:00Z</time>
      </trkpt>
      <trkpt lat="42.5357" lon="2.01783">
        <ele>2202</ele>
        <time>2021-08-24T14:32:29Z</time>
      </trkpt>
      <trkpt lat="42.53575" lon="2.01772">
        <ele>2203</ele>
        <time>2021-08-24T14:32:42Z</time>
      </trkpt>
      <trkpt lat="42.53574" lon="2.01756">
        <ele>2203</ele>
        <time>2021-08-24T14:32:58Z</time>
      </trkpt>
      <trkpt lat="42.53573" lon="2.01753">
        <ele>2203</ele>
        <time>2021-08-24T14:33:01Z</time>
      </trkpt>
      <trkpt lat="42.53603" lon="2.01714">
        <ele>2204</ele>
        <time>2021-08-24T14:33:56Z</time>
      </trkpt>
      <trkpt lat="42.53653" lon="2.01629">
        <ele>2202</ele>
        <time>2021-08-24T14:35:43Z</time>
      </trkpt>
      <trkpt lat="42.53697" lon="2.0153">
        <ele>2194</ele>
        <time>2021-08-24T14:37:37Z</time>
      </trkpt>
      <trkpt lat="42.53579" lon="2.01533">
        <ele>2211</ele>
        <time>2021-08-24T14:40:14Z</time>
      </trkpt>
      <trkpt lat="42.53577" lon="2.01524">
        <ele>2211</ele>
        <time>2021-08-24T14:40:24Z</time>
      </trkpt>
      <trkpt lat="42.5357" lon="2.01508">
        <ele>2210</ele>
        <time>2021-08-24T14:40:42Z</time>
      </trkpt>
      <trkpt lat="42.53566" lon="2.0148">
        <ele>2208</ele>
        <time>2021-08-24T14:41:10Z</time>
      </trkpt>
      <trkpt lat="42.53575" lon="2.01378">
        <ele>2201</ele>
        <time>2021-08-24T14:42:51Z</time>
      </trkpt>
      <trkpt lat="42.53573" lon="2.01359">
        <ele>2200</ele>
        <time>2021-08-24T14:43:10Z</time>
      </trkpt>
      <trkpt lat="42.53574" lon="2.01349">
        <ele>2200</ele>
        <time>2021-08-24T14:43:20Z</time>
      </trkpt>
      <trkpt lat="42.53616" lon="2.0129">
        <ele>2194</ele>
        <time>2021-08-24T14:44:40Z</time>
      </trkpt>
      <trkpt lat="42.53649" lon="2.01268">
        <ele>2189</ele>
        <time>2021-08-24T14:45:30Z</time>
      </trkpt>
      <trkpt lat="42.53675" lon="2.01246">
        <ele>2183</ele>
        <time>2021-08-24T14:46:10Z</time>
      </trkpt>
      <trkpt lat="42.53694" lon="2.01241">
        <ele>2178</ele>
        <time>2021-08-24T14:46:36Z</time>
      </trkpt>
      <trkpt lat="42.53733" lon="2.01222">
        <ele>2168</ele>
        <time>2021-08-24T14:47:32Z</time>
      </trkpt>
      <trkpt lat="42.53754" lon="2.01204">
        <ele>2161</ele>
        <time>2021-08-24T14:48:05Z</time>
      </trkpt>
      <trkpt lat="42.53778" lon="2.01188">
        <ele>2155</ele>
        <time>2021-08-24T14:48:40Z</time>
      </trkpt>
      <trkpt lat="42.5379" lon="2.01184">
        <ele>2153</ele>
        <time>2021-08-24T14:48:57Z</time>
      </trkpt>
      <trkpt lat="42.53812" lon="2.01163">
        <ele>2147</ele>
        <time>2021-08-24T14:49:33Z</time>
      </trkpt>
      <trkpt lat="42.53831" lon="2.01151">
        <ele>2143</ele>
        <time>2021-08-24T14:50:01Z</time>
      </trkpt>
      <trkpt lat="42.5384" lon="2.01149">
        <ele>2141</ele>
        <time>2021-08-24T14:50:13Z</time>
      </trkpt>
      <trkpt lat="42.5387" lon="2.01148">
        <ele>2134</ele>
        <time>2021-08-24T14:50:53Z</time>
      </trkpt>
      <trkpt lat="42.53878" lon="2.01144">
        <ele>2132</ele>
        <time>2021-08-24T14:51:04Z</time>
      </trkpt>
      <trkpt lat="42.53882" lon="2.01138">
        <ele>2131</ele>
        <time>2021-08-24T14:51:12Z</time>
      </trkpt>
      <trkpt lat="42.53883" lon="2.0113">
        <ele>2130</ele>
        <time>2021-08-24T14:51:20Z</time>
      </trkpt>
      <trkpt lat="42.53875" lon="2.01111">
        <ele>2131</ele>
        <time>2021-08-24T14:51:42Z</time>
      </trkpt>
      <trkpt lat="42.53874" lon="2.01102">
        <ele>2131</ele>
        <time>2021-08-24T14:51:51Z</time>
      </trkpt>
      <trkpt lat="42.53876" lon="2.01097">
        <ele>2130</ele>
        <time>2021-08-24T14:51:56Z</time>
      </trkpt>
      <trkpt lat="42.53892" lon="2.01088">
        <ele>2126</ele>
        <time>2021-08-24T14:52:19Z</time>
      </trkpt>
      <trkpt lat="42.53895" lon="2.01085">
        <ele>2125</ele>
        <time>2021-08-24T14:52:24Z</time>
      </trkpt>
      <trkpt lat="42.53895" lon="2.01081">
        <ele>2125</ele>
        <time>2021-08-24T14:52:28Z</time>
      </trkpt>
      <trkpt lat="42.5389" lon="2.01073">
        <ele>2125</ele>
        <time>2021-08-24T14:52:39Z</time>
      </trkpt>
      <trkpt lat="42.5389" lon="2.01061">
        <ele>2123</ele>
        <time>2021-08-24T14:52:50Z</time>
      </trkpt>
      <trkpt lat="42.53895" lon="2.01061">
        <ele>2122</ele>
        <time>2021-08-24T14:52:57Z</time>
      </trkpt>
      <trkpt lat="42.53907" lon="2.01072">
        <ele>2121</ele>
        <time>2021-08-24T14:53:16Z</time>
      </trkpt>
      <trkpt lat="42.53909" lon="2.01071">
        <ele>2120</ele>
        <time>2021-08-24T14:53:19Z</time>
      </trkpt>
      <trkpt lat="42.53911" lon="2.01068">
        <ele>2119</ele>
        <time>2021-08-24T14:53:23Z</time>
      </trkpt>
      <trkpt lat="42.53908" lon="2.01032">
        <ele>2116</ele>
        <time>2021-08-24T14:53:59Z</time>
      </trkpt>
      <trkpt lat="42.53909" lon="2.01026">
        <ele>2115</ele>
        <time>2021-08-24T14:54:05Z</time>
      </trkpt>
      <trkpt lat="42.53912" lon="2.01025">
        <ele>2114</ele>
        <time>2021-08-24T14:54:09Z</time>
      </trkpt>
      <trkpt lat="42.53916" lon="2.01027">
        <ele>2113</ele>
        <time>2021-08-24T14:54:15Z</time>
      </trkpt>
      <trkpt lat="42.53935" lon="2.01047">
        <ele>2109</ele>
        <time>2021-08-24T14:54:47Z</time>
      </trkpt>
      <trkpt lat="42.53938" lon="2.01047">
        <ele>2108</ele>
        <time>2021-08-24T14:54:51Z</time>
      </trkpt>
      <trkpt lat="42.5394" lon="2.01045">
        <ele>2107</ele>
        <time>2021-08-24T14:54:54Z</time>
      </trkpt>
      <trkpt lat="42.53941" lon="2.00995">
        <ele>2101</ele>
        <time>2021-08-24T14:55:43Z</time>
      </trkpt>
      <trkpt lat="42.5394" lon="2.00986">
        <ele>2101</ele>
        <time>2021-08-24T14:55:52Z</time>
      </trkpt>
      <trkpt lat="42.5394" lon="2.00983">
        <ele>2100</ele>
        <time>2021-08-24T14:55:55Z</time>
      </trkpt>
      <trkpt lat="42.53947" lon="2.00985">
        <ele>2098</ele>
        <time>2021-08-24T14:56:05Z</time>
      </trkpt>
      <trkpt lat="42.5397" lon="2.01008">
        <ele>2093</ele>
        <time>2021-08-24T14:56:43Z</time>
      </trkpt>
      <trkpt lat="42.53974" lon="2.01008">
        <ele>2092</ele>
        <time>2021-08-24T14:56:48Z</time>
      </trkpt>
      <trkpt lat="42.53976" lon="2.00997">
        <ele>2090</ele>
        <time>2021-08-24T14:56:59Z</time>
      </trkpt>
      <trkpt lat="42.53975" lon="2.00976">
        <ele>2088</ele>
        <time>2021-08-24T14:57:20Z</time>
      </trkpt>
      <trkpt lat="42.53964" lon="2.00935">
        <ele>2087</ele>
        <time>2021-08-24T14:58:03Z</time>
      </trkpt>
      <trkpt lat="42.53965" lon="2.00933">
        <ele>2086</ele>
        <time>2021-08-24T14:58:05Z</time>
      </trkpt>
      <trkpt lat="42.53969" lon="2.00932">
        <ele>2085</ele>
        <time>2021-08-24T14:58:11Z</time>
      </trkpt>
      <trkpt lat="42.53973" lon="2.00935">
        <ele>2084</ele>
        <time>2021-08-24T14:58:17Z</time>
      </trkpt>
      <trkpt lat="42.54003" lon="2.00966">
        <ele>2079</ele>
        <time>2021-08-24T14:59:07Z</time>
      </trkpt>
      <trkpt lat="42.5401" lon="2.00978">
        <ele>2078</ele>
        <time>2021-08-24T14:59:22Z</time>
      </trkpt>
      <trkpt lat="42.5402" lon="2.01006">
        <ele>2078</ele>
        <time>2021-08-24T14:59:53Z</time>
      </trkpt>
      <trkpt lat="42.54027" lon="2.01013">
        <ele>2077</ele>
        <time>2021-08-24T15:00:04Z</time>
      </trkpt>
      <trkpt lat="42.54035" lon="2.01018">
        <ele>2075</ele>
        <time>2021-08-24T15:00:16Z</time>
      </trkpt>
      <trkpt lat="42.54047" lon="2.01021">
        <ele>2072</ele>
        <time>2021-08-24T15:00:32Z</time>
      </trkpt>
      <trkpt lat="42.54063" lon="2.0102">
        <ele>2068</ele>
        <time>2021-08-24T15:00:54Z</time>
      </trkpt>
      <trkpt lat="42.54077" lon="2.01021">
        <ele>2065</ele>
        <time>2021-08-24T15:01:13Z</time>
      </trkpt>
      <trkpt lat="42.54111" lon="2.01032">
        <ele>2058</ele>
        <time>2021-08-24T15:01:59Z</time>
      </trkpt>
      <trkpt lat="42.54128" lon="2.01035">
        <ele>2055</ele>
        <time>2021-08-24T15:02:22Z</time>
      </trkpt>
      <trkpt lat="42.54149" lon="2.01031">
        <ele>2051</ele>
        <time>2021-08-24T15:02:50Z</time>
      </trkpt>
      <trkpt lat="42.54166" lon="2.01018">
        <ele>2047</ele>
        <time>2021-08-24T15:03:16Z</time>
      </trkpt>
      <trkpt lat="42.54205" lon="2.0097">
        <ele>2035</ele>
        <time>2021-08-24T15:04:27Z</time>
      </trkpt>
      <trkpt lat="42.54245" lon="2.00926">
        <ele>2022</ele>
        <time>2021-08-24T15:05:35Z</time>
      </trkpt>
      <trkpt lat="42.54265" lon="2.0088">
        <ele>2011</ele>
        <time>2021-08-24T15:06:28Z</time>
      </trkpt>
      <trkpt lat="42.54281" lon="2.00856">
        <ele>2005</ele>
        <time>2021-08-24T15:07:00Z</time>
      </trkpt>
      <trkpt lat="42.54332" lon="2.00804">
        <ele>1988</ele>
        <time>2021-08-24T15:08:25Z</time>
      </trkpt>
      <trkpt lat="42.5434" lon="2.00789">
        <ele>1984</ele>
        <time>2021-08-24T15:08:43Z</time>
      </trkpt>
      <trkpt lat="42.54347" lon="2.00769">
        <ele>1978</ele>
        <time>2021-08-24T15:09:05Z</time>
      </trkpt>
      <trkpt lat="42.54354" lon="2.00753">
        <ele>1974</ele>
        <time>2021-08-24T15:09:23Z</time>
      </trkpt>
      <trkpt lat="42.54361" lon="2.00745">
        <ele>1972</ele>
        <time>2021-08-24T15:09:35Z</time>
      </trkpt>
      <trkpt lat="42.54392" lon="2.00722">
        <ele>1966</ele>
        <time>2021-08-24T15:10:22Z</time>
      </trkpt>
      <trkpt lat="42.54433" lon="2.00666">
        <ele>1957</ele>
        <time>2021-08-24T15:11:40Z</time>
      </trkpt>
      <trkpt lat="42.54442" lon="2.00661">
        <ele>1957</ele>
        <time>2021-08-24T15:11:53Z</time>
      </trkpt>
      <trkpt lat="42.54451" lon="2.00658">
        <ele>1957</ele>
        <time>2021-08-24T15:12:05Z</time>
      </trkpt>
      <trkpt lat="42.54464" lon="2.00644">
        <ele>1956</ele>
        <time>2021-08-24T15:12:28Z</time>
      </trkpt>
      <trkpt lat="42.54466" lon="2.00634">
        <ele>1955</ele>
        <time>2021-08-24T15:12:38Z</time>
      </trkpt>
      <trkpt lat="42.54467" lon="2.00628">
        <ele>1954</ele>
        <time>2021-08-24T15:12:44Z</time>
      </trkpt>
      <trkpt lat="42.54473" lon="2.00629">
        <ele>1955</ele>
        <time>2021-08-24T15:12:52Z</time>
      </trkpt>
      <trkpt lat="42.54506" lon="2.00611">
        <ele>1956</ele>
        <time>2021-08-24T15:13:39Z</time>
      </trkpt>
      <trkpt lat="42.54518" lon="2.006">
        <ele>1958</ele>
        <time>2021-08-24T15:13:59Z</time>
      </trkpt>
      <trkpt lat="42.54507" lon="2.00675">
        <ele>1962</ele>
        <time>2021-08-24T15:15:14Z</time>
      </trkpt>
      <trkpt lat="42.54499" lon="2.00742">
        <ele>1963</ele>
        <time>2021-08-24T15:16:21Z</time>
      </trkpt>
      <trkpt lat="42.54493" lon="2.00796">
        <ele>1964</ele>
        <time>2021-08-24T15:17:14Z</time>
      </trkpt>
      <trkpt lat="42.54503" lon="2.00764">
        <ele>1963</ele>
        <time>2021-08-24T15:17:48Z</time>
      </trkpt>
      <trkpt lat="42.54506" lon="2.0076">
        <ele>1964</ele>
        <time>2021-08-24T15:17:54Z</time>
      </trkpt>
      <trkpt lat="42.54515" lon="2.00755">
        <ele>1965</ele>
        <time>2021-08-24T15:18:07Z</time>
      </trkpt>
      <trkpt lat="42.54526" lon="2.00735">
        <ele>1966</ele>
        <time>2021-08-24T15:18:32Z</time>
      </trkpt>
      <trkpt lat="42.54515" lon="2.00755">
        <ele>1965</ele>
        <time>2021-08-24T15:18:56Z</time>
      </trkpt>
      <trkpt lat="42.54506" lon="2.0076">
        <ele>1964</ele>
        <time>2021-08-24T15:19:09Z</time>
      </trkpt>
      <trkpt lat="42.54503" lon="2.00764">
        <ele>1963</ele>
        <time>2021-08-24T15:19:15Z</time>
      </trkpt>
      <trkpt lat="42.54493" lon="2.00796">
        <ele>1964</ele>
        <time>2021-08-24T15:19:49Z</time>
      </trkpt>
      <trkpt lat="42.54499" lon="2.00742">
        <ele>1963</ele>
        <time>2021-08-24T15:20:43Z</time>
      </trkpt>
      <trkpt lat="42.54507" lon="2.00675">
        <ele>1962</ele>
        <time>2021-08-24T15:21:49Z</time>
      </trkpt>
      <trkpt lat="42.54515" lon="2.0062">
        <ele>1959</ele>
        <time>2021-08-24T15:22:44Z</time>
      </trkpt>
      <trkpt lat="42.54518" lon="2.006">
        <ele>1958</ele>
        <time>2021-08-24T15:23:04Z</time>
      </trkpt>
      <trkpt lat="42.54535" lon="2.00555">
        <ele>1956</ele>
        <time>2021-08-24T15:23:54Z</time>
      </trkpt>
      <trkpt lat="42.54581" lon="2.00471">
        <ele>1954</ele>
        <time>2021-08-24T15:25:37Z</time>
      </trkpt>
      <trkpt lat="42.546" lon="2.00442">
        <ele>1954</ele>
        <time>2021-08-24T15:26:15Z</time>
      </trkpt>
      <trkpt lat="42.54635" lon="2.00413">
        <ele>1955</ele>
        <time>2021-08-24T15:27:10Z</time>
      </trkpt>
      <trkpt lat="42.54682" lon="2.00378">
        <ele>1960</ele>
        <time>2021-08-24T15:28:22Z</time>
      </trkpt>
      <trkpt lat="42.54736" lon="2.0035">
        <ele>1963</ele>
        <time>2021-08-24T15:29:39Z</time>
      </trkpt>
      <trkpt lat="42.54751" lon="2.0034">
        <ele>1964</ele>
        <time>2021-08-24T15:30:01Z</time>
      </trkpt>
      <trkpt lat="42.54787" lon="2.00316">
        <ele>1966</ele>
        <time>2021-08-24T15:30:54Z</time>
      </trkpt>
      <trkpt lat="42.54814" lon="2.00305">
        <ele>1968</ele>
        <time>2021-08-24T15:31:32Z</time>
      </trkpt>
      <trkpt lat="42.54853" lon="2.00292">
        <ele>1971</ele>
        <time>2021-08-24T15:32:26Z</time>
      </trkpt>
      <trkpt lat="42.54911" lon="2.00281">
        <ele>1974</ele>
        <time>2021-08-24T15:33:44Z</time>
      </trkpt>
      <trkpt lat="42.54974" lon="2.00262">
        <ele>1977</ele>
        <time>2021-08-24T15:35:10Z</time>
      </trkpt>
      <trkpt lat="42.55016" lon="2.00226">
        <ele>1977</ele>
        <time>2021-08-24T15:36:16Z</time>
      </trkpt>
      <trkpt lat="42.55027" lon="2.00221">
        <ele>1977</ele>
        <time>2021-08-24T15:36:32Z</time>
      </trkpt>
      <trkpt lat="42.55144" lon="2.00203">
        <ele>1981</ele>
        <time>2021-08-24T15:39:09Z</time>
      </trkpt>
      <trkpt lat="42.55171" lon="2.00205">
        <ele>1982</ele>
        <time>2021-08-24T15:39:45Z</time>
      </trkpt>
      <trkpt lat="42.55195" lon="2.00211">
        <ele>1982</ele>
        <time>2021-08-24T15:40:18Z</time>
      </trkpt>
      <trkpt lat="42.55219" lon="2.00208">
        <ele>1983</ele>
        <time>2021-08-24T15:40:50Z</time>
      </trkpt>
      <trkpt lat="42.55275" lon="2.0018">
        <ele>1984</ele>
        <time>2021-08-24T15:42:09Z</time>
      </trkpt>
      <trkpt lat="42.55301" lon="2.00171">
        <ele>1985</ele>
        <time>2021-08-24T15:42:45Z</time>
      </trkpt>
      <trkpt lat="42.55325" lon="2.00162">
        <ele>1986</ele>
        <time>2021-08-24T15:43:18Z</time>
      </trkpt>
      <trkpt lat="42.55392" lon="2.00148">
        <ele>1987</ele>
        <time>2021-08-24T15:44:49Z</time>
      </trkpt>
      <trkpt lat="42.55449" lon="2.00138">
        <ele>1988</ele>
        <time>2021-08-24T15:46:05Z</time>
      </trkpt>
      <trkpt lat="42.5548" lon="2.00129">
        <ele>1988</ele>
        <time>2021-08-24T15:46:48Z</time>
      </trkpt>
      <trkpt lat="42.55524" lon="2.00105">
        <ele>1989</ele>
        <time>2021-08-24T15:47:51Z</time>
      </trkpt>
      <trkpt lat="42.55547" lon="2.00095">
        <ele>1991</ele>
        <time>2021-08-24T15:48:23Z</time>
      </trkpt>
      <trkpt lat="42.55608" lon="2.00082">
        <ele>1995</ele>
        <time>2021-08-24T15:49:46Z</time>
      </trkpt>
      <trkpt lat="42.55646" lon="2.00062">
        <ele>1998</ele>
        <time>2021-08-24T15:50:40Z</time>
      </trkpt>
      <trkpt lat="42.55719" lon="2.00044">
        <ele>2003</ele>
        <time>2021-08-24T15:52:19Z</time>
      </trkpt>
      <trkpt lat="42.55788" lon="2.00011">
        <ele>2008</ele>
        <time>2021-08-24T15:53:57Z</time>
      </trkpt>
      <trkpt lat="42.55803" lon="1.99999">
        <ele>2010</ele>
        <time>2021-08-24T15:54:20Z</time>
      </trkpt>
      <trkpt lat="42.55811" lon="1.99998">
        <ele>2010</ele>
        <time>2021-08-24T15:54:31Z</time>
      </trkpt>
      <trkpt lat="42.55837" lon="2.00005">
        <ele>2010</ele>
        <time>2021-08-24T15:55:06Z</time>
      </trkpt>
      <trkpt lat="42.5586" lon="2.00006">
        <ele>2010</ele>
        <time>2021-08-24T15:55:37Z</time>
      </trkpt>
      <trkpt lat="42.55865" lon="2.00004">
        <ele>2010</ele>
        <time>2021-08-24T15:55:44Z</time>
      </trkpt>
      <trkpt lat="42.5587" lon="2.00002">
        <ele>2010</ele>
        <time>2021-08-24T15:55:51Z</time>
      </trkpt>
      <trkpt lat="42.55879" lon="2.00012">
        <ele>2009</ele>
        <time>2021-08-24T15:56:06Z</time>
      </trkpt>
      <trkpt lat="42.559" lon="2.00016">
        <ele>2008</ele>
        <time>2021-08-24T15:56:34Z</time>
      </trkpt>
      <trkpt lat="42.55938" lon="2.00011">
        <ele>2008</ele>
        <time>2021-08-24T15:57:25Z</time>
      </trkpt>
      <trkpt lat="42.55955" lon="2.00011">
        <ele>2008</ele>
        <time>2021-08-24T15:57:48Z</time>
      </trkpt>
      <trkpt lat="42.55967" lon="2.00016">
        <ele>2008</ele>
        <time>2021-08-24T15:58:05Z</time>
      </trkpt>
      <trkpt lat="42.5597" lon="2.00021">
        <ele>2007</ele>
        <time>2021-08-24T15:58:11Z</time>
      </trkpt>
      <trkpt lat="42.55967" lon="2.00016">
        <ele>2008</ele>
        <time>2021-08-24T15:58:18Z</time>
      </trkpt>
      <trkpt lat="42.55971" lon="2.00006">
        <ele>2008</ele>
        <time>2021-08-24T15:58:29Z</time>
      </trkpt>
      <trkpt lat="42.55977" lon="1.99983">
        <ele>2010</ele>
        <time>2021-08-24T15:58:53Z</time>
      </trkpt>
      <trkpt lat="42.55977" lon="1.99972">
        <ele>2011</ele>
        <time>2021-08-24T15:59:04Z</time>
      </trkpt>
      <trkpt lat="42.55974" lon="1.99948">
        <ele>2013</ele>
        <time>2021-08-24T15:59:27Z</time>
      </trkpt>
      <trkpt lat="42.55971" lon="1.99943">
        <ele>2014</ele>
        <time>2021-08-24T15:59:34Z</time>
      </trkpt>
      <trkpt lat="42.55966" lon="1.99939">
        <ele>2014</ele>
        <time>2021-08-24T15:59:42Z</time>
      </trkpt>
      <trkpt lat="42.55972" lon="1.99931">
        <ele>2015</ele>
        <time>2021-08-24T15:59:53Z</time>
      </trkpt>
      <trkpt lat="42.5597" lon="1.99921">
        <ele>2016</ele>
        <time>2021-08-24T16:00:03Z</time>
      </trkpt>
      <trkpt lat="42.55966" lon="1.9992">
        <ele>2016</ele>
        <time>2021-08-24T16:00:08Z</time>
      </trkpt>
      <trkpt lat="42.55959" lon="1.99922">
        <ele>2016</ele>
        <time>2021-08-24T16:00:18Z</time>
      </trkpt>
      <trkpt lat="42.55952" lon="1.99917">
        <ele>2016</ele>
        <time>2021-08-24T16:00:28Z</time>
      </trkpt>
      <trkpt lat="42.55945" lon="1.99902">
        <ele>2017</ele>
        <time>2021-08-24T16:00:46Z</time>
      </trkpt>
      <trkpt lat="42.55945" lon="1.99896">
        <ele>2017</ele>
        <time>2021-08-24T16:00:52Z</time>
      </trkpt>
      <trkpt lat="42.55969" lon="1.99868">
        <ele>2018</ele>
        <time>2021-08-24T16:01:34Z</time>
      </trkpt>
      <trkpt lat="42.55978" lon="1.99861">
        <ele>2019</ele>
        <time>2021-08-24T16:01:48Z</time>
      </trkpt>
      <trkpt lat="42.56002" lon="1.99848">
        <ele>2020</ele>
        <time>2021-08-24T16:02:22Z</time>
      </trkpt>
      <trkpt lat="42.5601" lon="1.99841">
        <ele>2019</ele>
        <time>2021-08-24T16:02:35Z</time>
      </trkpt>
      <trkpt lat="42.56017" lon="1.99825">
        <ele>2020</ele>
        <time>2021-08-24T16:02:53Z</time>
      </trkpt>
      <trkpt lat="42.56026" lon="1.99809">
        <ele>2021</ele>
        <time>2021-08-24T16:03:13Z</time>
      </trkpt>
      <trkpt lat="42.56033" lon="1.998">
        <ele>2022</ele>
        <time>2021-08-24T16:03:26Z</time>
      </trkpt>
      <trkpt lat="42.56037" lon="1.99791">
        <ele>2023</ele>
        <time>2021-08-24T16:03:36Z</time>
      </trkpt>
      <trkpt lat="42.5604" lon="1.99781">
        <ele>2024</ele>
        <time>2021-08-24T16:03:47Z</time>
      </trkpt>
      <trkpt lat="42.56039" lon="1.99773">
        <ele>2026</ele>
        <time>2021-08-24T16:03:55Z</time>
      </trkpt>
      <trkpt lat="42.56035" lon="1.99758">
        <ele>2028</ele>
        <time>2021-08-24T16:04:11Z</time>
      </trkpt>
      <trkpt lat="42.56036" lon="1.99752">
        <ele>2029</ele>
        <time>2021-08-24T16:04:17Z</time>
      </trkpt>
      <trkpt lat="42.56039" lon="1.99742">
        <ele>2030</ele>
        <time>2021-08-24T16:04:27Z</time>
      </trkpt>
      <trkpt lat="42.56045" lon="1.99734">
        <ele>2031</ele>
        <time>2021-08-24T16:04:39Z</time>
      </trkpt>
      <trkpt lat="42.56044" lon="1.99723">
        <ele>2033</ele>
        <time>2021-08-24T16:04:49Z</time>
      </trkpt>
      <trkpt lat="42.56035" lon="1.99704">
        <ele>2035</ele>
        <time>2021-08-24T16:05:12Z</time>
      </trkpt>
      <trkpt lat="42.56032" lon="1.9968">
        <ele>2038</ele>
        <time>2021-08-24T16:05:36Z</time>
      </trkpt>
      <trkpt lat="42.56028" lon="1.99659">
        <ele>2041</ele>
        <time>2021-08-24T16:05:57Z</time>
      </trkpt>
      <trkpt lat="42.5602" lon="1.99661">
        <ele>2040</ele>
        <time>2021-08-24T16:06:08Z</time>
      </trkpt>
    </trkseg>
  </trk>
</gpx>